CAL705 RCTP-RPVM
Flight info
| Callsign | CAL705 |
|---|---|
| Flight time | 2h 21m |
| Altitude | 35000 |
| Route | TINHO1A TINHO Q11 POTIB M646 LAO B462 CAB DCT IPATA W25 BATAY BATAY3P |
| Aircraft | A333/H-SDE3GHIJ2J3J5M1RVWXY/LB2D1 |
Departure
| Time | 2026-05-05 06:20 |
|---|---|
| Airport | Taiwan Taoyuan International Airport (RCTP) |
Arrival
| Time | 2026-05-05 08:42 |
|---|---|
| Airport | Mactan Cebu International Airport (RPVM) |
| Time | Latitude | Longitude | Altitude | Speed | Heading |
|---|---|---|---|---|---|
| 2026-05-05 05:49 | 25.07683 | 121.23552 | 120 ft | 0 kts | 321° |
| 2026-05-05 06:02 | 25.07681 | 121.23553 | 120 ft | 1 kts | 321° |
| 2026-05-05 06:03 | 25.07674 | 121.23560 | 120 ft | 1 kts | 321° |
| 2026-05-05 06:03 | 25.07669 | 121.23564 | 120 ft | 0 kts | 321° |
| 2026-05-05 06:03 | 25.07664 | 121.23569 | 120 ft | 2 kts | 321° |
| 2026-05-05 06:03 | 25.07653 | 121.23579 | 120 ft | 2 kts | 321° |
| 2026-05-05 06:04 | 25.07641 | 121.23589 | 120 ft | 2 kts | 321° |
| 2026-05-05 06:04 | 25.07629 | 121.23599 | 120 ft | 2 kts | 321° |
| 2026-05-05 06:04 | 25.07621 | 121.23606 | 119 ft | 0 kts | 321° |
| 2026-05-05 06:04 | 25.07612 | 121.23618 | 120 ft | 2 kts | 296° |
| 2026-05-05 06:05 | 25.07608 | 121.23633 | 120 ft | 2 kts | 268° |
| 2026-05-05 06:05 | 25.07610 | 121.23649 | 120 ft | 2 kts | 242° |
| 2026-05-05 06:05 | 25.07615 | 121.23656 | 120 ft | 1 kts | 228° |
| 2026-05-05 06:05 | 25.07616 | 121.23658 | 120 ft | 0 kts | 229° |
| 2026-05-05 06:10 | 25.07588 | 121.23621 | 119 ft | 12 kts | 226° |
| 2026-05-05 06:10 | 25.07523 | 121.23535 | 119 ft | 12 kts | 230° |
| 2026-05-05 06:11 | 25.07482 | 121.23483 | 119 ft | 8 kts | 228° |
| 2026-05-05 06:11 | 25.07452 | 121.23447 | 119 ft | 5 kts | 227° |
| 2026-05-05 06:11 | 25.07404 | 121.23388 | 119 ft | 15 kts | 228° |
| 2026-05-05 06:12 | 25.07326 | 121.23289 | 120 ft | 12 kts | 229° |
| 2026-05-05 06:12 | 25.07283 | 121.23234 | 119 ft | 7 kts | 230° |
| 2026-05-05 06:12 | 25.07260 | 121.23203 | 119 ft | 3 kts | 230° |
| 2026-05-05 06:12 | 25.07234 | 121.23182 | 119 ft | 9 kts | 200° |
| 2026-05-05 06:13 | 25.07160 | 121.23199 | 120 ft | 10 kts | 176° |
| 2026-05-05 06:13 | 25.07093 | 121.23163 | 120 ft | 11 kts | 226° |
| 2026-05-05 06:13 | 25.07035 | 121.23090 | 120 ft | 13 kts | 228° |
| 2026-05-05 06:13 | 25.06970 | 121.23010 | 120 ft | 14 kts | 229° |
| 2026-05-05 06:14 | 25.06900 | 121.22919 | 120 ft | 15 kts | 229° |
| 2026-05-05 06:14 | 25.06882 | 121.22894 | 119 ft | 0 kts | 231° |
| 2026-05-05 06:14 | 25.06881 | 121.22893 | 120 ft | 1 kts | 231° |
| 2026-05-05 06:14 | 25.06854 | 121.22855 | 120 ft | 9 kts | 231° |
| 2026-05-05 06:15 | 25.06794 | 121.22777 | 120 ft | 16 kts | 229° |
| 2026-05-05 06:15 | 25.06752 | 121.22728 | 119 ft | 8 kts | 220° |
| 2026-05-05 06:15 | 25.06694 | 121.22716 | 120 ft | 8 kts | 173° |
| 2026-05-05 06:15 | 25.06652 | 121.22722 | 120 ft | 3 kts | 181° |
| 2026-05-05 06:16 | 25.06621 | 121.22710 | 120 ft | 11 kts | 212° |
| 2026-05-05 06:16 | 25.06545 | 121.22620 | 120 ft | 16 kts | 230° |
| 2026-05-05 06:16 | 25.06476 | 121.22533 | 120 ft | 13 kts | 229° |
| 2026-05-05 06:16 | 25.06427 | 121.22471 | 120 ft | 8 kts | 229° |
| 2026-05-05 06:17 | 25.06396 | 121.22432 | 120 ft | 4 kts | 229° |
| 2026-05-05 06:17 | 25.06365 | 121.22393 | 120 ft | 8 kts | 229° |
| 2026-05-05 06:17 | 25.06322 | 121.22339 | 120 ft | 9 kts | 229° |
| 2026-05-05 06:17 | 25.06277 | 121.22321 | 120 ft | 5 kts | 167° |
| 2026-05-05 06:18 | 25.06253 | 121.22337 | 120 ft | 4 kts | 143° |
| 2026-05-05 06:18 | 25.06212 | 121.22371 | 120 ft | 9 kts | 142° |
| 2026-05-05 06:18 | 25.06168 | 121.22424 | 120 ft | 8 kts | 108° |
| 2026-05-05 06:18 | 25.06178 | 121.22466 | 120 ft | 3 kts | 52° |
| 2026-05-05 06:19 | 25.06180 | 121.22469 | 120 ft | 0 kts | 53° |
| 2026-05-05 06:19 | 25.06190 | 121.22485 | 120 ft | 12 kts | 54° |
| 2026-05-05 06:20 | 25.06387 | 121.22738 | 120 ft | 77 kts | 49° |
| 2026-05-05 06:20 | 25.06883 | 121.23366 | 120 ft | 137 kts | 49° |
| 2026-05-05 06:20 | 25.07607 | 121.24290 | 315 ft | 170 kts | 50° |
| 2026-05-05 06:20 | 25.08318 | 121.25217 | 1162 ft | 156 kts | 52° |
| 2026-05-05 06:21 | 25.09031 | 121.26128 | 1879 ft | 156 kts | 51° |
| 2026-05-05 06:21 | 25.09730 | 121.27005 | 2328 ft | 158 kts | 51° |
| 2026-05-05 06:21 | 25.10484 | 121.27972 | 2566 ft | 174 kts | 52° |
| 2026-05-05 06:21 | 25.11304 | 121.29034 | 2783 ft | 192 kts | 51° |
| 2026-05-05 06:22 | 25.12247 | 121.30209 | 3054 ft | 216 kts | 47° |
| 2026-05-05 06:22 | 25.13332 | 121.31454 | 3503 ft | 233 kts | 47° |
| 2026-05-05 06:22 | 25.14497 | 121.32795 | 3947 ft | 251 kts | 46° |
| 2026-05-05 06:22 | 25.15787 | 121.34222 | 4328 ft | 273 kts | 44° |
| 2026-05-05 06:23 | 25.17178 | 121.35699 | 5004 ft | 281 kts | 44° |
| 2026-05-05 06:23 | 25.18601 | 121.37191 | 5730 ft | 288 kts | 43° |
| 2026-05-05 06:23 | 25.20049 | 121.38742 | 6515 ft | 291 kts | 44° |
| 2026-05-05 06:23 | 25.21212 | 121.40552 | 7196 ft | 297 kts | 68° |
| 2026-05-05 06:24 | 25.21564 | 121.42786 | 7895 ft | 299 kts | 94° |
| 2026-05-05 06:24 | 25.21013 | 121.44952 | 8552 ft | 299 kts | 122° |
| 2026-05-05 06:24 | 25.19860 | 121.46861 | 9187 ft | 302 kts | 131° |
| 2026-05-05 06:24 | 25.18288 | 121.48404 | 9816 ft | 302 kts | 149° |
| 2026-05-05 06:25 | 25.16534 | 121.49676 | 10439 ft | 307 kts | 152° |
| 2026-05-05 06:25 | 25.14658 | 121.50944 | 10734 ft | 325 kts | 153° |
| 2026-05-05 06:25 | 25.12669 | 121.52261 | 10998 ft | 344 kts | 153° |
| 2026-05-05 06:25 | 25.10551 | 121.53657 | 11216 ft | 363 kts | 153° |
| 2026-05-05 06:26 | 25.08344 | 121.55109 | 11459 ft | 379 kts | 153° |
| 2026-05-05 06:26 | 25.06041 | 121.56628 | 12049 ft | 383 kts | 153° |
| 2026-05-05 06:26 | 25.03754 | 121.58131 | 12679 ft | 386 kts | 154° |
| 2026-05-05 06:26 | 25.01455 | 121.59640 | 13144 ft | 392 kts | 154° |
| 2026-05-05 06:27 | 24.99113 | 121.61179 | 13666 ft | 397 kts | 154° |
| 2026-05-05 06:27 | 24.94321 | 121.64323 | 14813 ft | 401 kts | 154° |
| 2026-05-05 06:27 | 24.91906 | 121.65907 | 15365 ft | 403 kts | 154° |
| 2026-05-05 06:28 | 24.89500 | 121.67484 | 15818 ft | 406 kts | 155° |
| 2026-05-05 06:28 | 24.87059 | 121.69083 | 16308 ft | 409 kts | 155° |
| 2026-05-05 06:28 | 24.84605 | 121.70690 | 16818 ft | 410 kts | 155° |
| 2026-05-05 06:28 | 24.82157 | 121.72289 | 17230 ft | 413 kts | 155° |
| 2026-05-05 06:29 | 24.79661 | 121.73922 | 17705 ft | 414 kts | 155° |
| 2026-05-05 06:29 | 24.77195 | 121.75534 | 18169 ft | 415 kts | 155° |
| 2026-05-05 06:29 | 24.74719 | 121.77154 | 18555 ft | 419 kts | 155° |
| 2026-05-05 06:29 | 24.72203 | 121.78797 | 18987 ft | 420 kts | 155° |
| 2026-05-05 06:30 | 24.69667 | 121.80453 | 19430 ft | 422 kts | 155° |
| 2026-05-05 06:30 | 24.67156 | 121.82091 | 19792 ft | 424 kts | 155° |
| 2026-05-05 06:30 | 24.65647 | 121.83075 | 20010 ft | 426 kts | 155° |
| 2026-05-05 06:30 | 24.63106 | 121.84720 | 20437 ft | 425 kts | 156° |
| 2026-05-05 06:31 | 24.60568 | 121.86377 | 20774 ft | 428 kts | 155° |
| 2026-05-05 06:31 | 24.58061 | 121.88017 | 21085 ft | 431 kts | 155° |
| 2026-05-05 06:31 | 24.55891 | 121.89432 | 21399 ft | 432 kts | 155° |
| 2026-05-05 06:31 | 24.54551 | 121.90306 | 21539 ft | 433 kts | 155° |
| 2026-05-05 06:32 | 24.51970 | 121.91988 | 21879 ft | 435 kts | 155° |
| 2026-05-05 06:32 | 24.49354 | 121.93689 | 22198 ft | 436 kts | 155° |
| 2026-05-05 06:32 | 24.46724 | 121.95398 | 22483 ft | 438 kts | 155° |
| 2026-05-05 06:32 | 24.44120 | 121.97093 | 22773 ft | 440 kts | 155° |
| 2026-05-05 06:33 | 24.41444 | 121.98830 | 23103 ft | 441 kts | 155° |
| 2026-05-05 06:33 | 24.38791 | 122.00541 | 23380 ft | 442 kts | 156° |
| 2026-05-05 06:33 | 24.35976 | 122.01740 | 23568 ft | 432 kts | 173° |
| 2026-05-05 06:33 | 24.33026 | 122.01975 | 23824 ft | 421 kts | 189° |
| 2026-05-05 06:34 | 24.30211 | 122.01296 | 24075 ft | 415 kts | 202° |
| 2026-05-05 06:34 | 24.27438 | 122.00336 | 24335 ft | 418 kts | 201° |
| 2026-05-05 06:34 | 24.24627 | 121.99402 | 24587 ft | 421 kts | 201° |
| 2026-05-05 06:34 | 24.21841 | 121.98488 | 24876 ft | 422 kts | 201° |
| 2026-05-05 06:35 | 24.18998 | 121.97556 | 25069 ft | 426 kts | 201° |
| 2026-05-05 06:35 | 24.16136 | 121.96623 | 25319 ft | 427 kts | 201° |
| 2026-05-05 06:35 | 24.13294 | 121.95695 | 25577 ft | 430 kts | 201° |
| 2026-05-05 06:35 | 24.10402 | 121.94754 | 25741 ft | 434 kts | 201° |
| 2026-05-05 06:36 | 24.07515 | 121.93813 | 26063 ft | 434 kts | 201° |
| 2026-05-05 06:36 | 24.04624 | 121.92872 | 26335 ft | 435 kts | 201° |
| 2026-05-05 06:36 | 24.01692 | 121.91918 | 26621 ft | 437 kts | 201° |
| 2026-05-05 06:36 | 23.98774 | 121.90968 | 26875 ft | 438 kts | 201° |
| 2026-05-05 06:37 | 23.95871 | 121.90024 | 27085 ft | 441 kts | 201° |
| 2026-05-05 06:37 | 23.92905 | 121.89062 | 27340 ft | 442 kts | 201° |
| 2026-05-05 06:37 | 23.89943 | 121.88099 | 27595 ft | 444 kts | 201° |
| 2026-05-05 06:37 | 23.86971 | 121.87134 | 27801 ft | 446 kts | 201° |
| 2026-05-05 06:38 | 23.84014 | 121.86174 | 28066 ft | 448 kts | 202° |
| 2026-05-05 06:38 | 23.80999 | 121.85197 | 28407 ft | 447 kts | 202° |
| 2026-05-05 06:38 | 23.78030 | 121.84235 | 28754 ft | 446 kts | 202° |
| 2026-05-05 06:38 | 23.75051 | 121.83270 | 29158 ft | 444 kts | 202° |
| 2026-05-05 06:39 | 23.72119 | 121.82320 | 29501 ft | 444 kts | 202° |
| 2026-05-05 06:39 | 23.69158 | 121.81361 | 29888 ft | 443 kts | 203° |
| 2026-05-05 06:39 | 23.66185 | 121.80399 | 30244 ft | 443 kts | 203° |
| 2026-05-05 06:39 | 23.63209 | 121.79437 | 30597 ft | 442 kts | 203° |
| 2026-05-05 06:40 | 23.60282 | 121.78491 | 31004 ft | 441 kts | 203° |
| 2026-05-05 06:40 | 23.57361 | 121.77545 | 31395 ft | 439 kts | 203° |
| 2026-05-05 06:40 | 23.54408 | 121.76588 | 31774 ft | 438 kts | 203° |
| 2026-05-05 06:40 | 23.51518 | 121.75652 | 32161 ft | 437 kts | 204° |
| 2026-05-05 06:41 | 23.48618 | 121.74713 | 32514 ft | 436 kts | 204° |
| 2026-05-05 06:41 | 23.45718 | 121.73773 | 32901 ft | 434 kts | 204° |
| 2026-05-05 06:41 | 23.42827 | 121.72838 | 33309 ft | 433 kts | 204° |
| 2026-05-05 06:41 | 23.39903 | 121.71893 | 33658 ft | 432 kts | 204° |
| 2026-05-05 06:42 | 23.37051 | 121.70973 | 33968 ft | 433 kts | 204° |
| 2026-05-05 06:42 | 23.34136 | 121.70033 | 34317 ft | 432 kts | 203° |
| 2026-05-05 06:42 | 23.31298 | 121.69119 | 34635 ft | 432 kts | 204° |
| 2026-05-05 06:42 | 23.28401 | 121.68185 | 34954 ft | 431 kts | 203° |
| 2026-05-05 06:43 | 23.25486 | 121.67247 | 34948 ft | 434 kts | 203° |
| 2026-05-05 06:43 | 23.19760 | 121.65406 | 34968 ft | 429 kts | 203° |
| 2026-05-05 06:44 | 23.13991 | 121.63551 | 34966 ft | 429 kts | 203° |
| 2026-05-05 06:44 | 23.08274 | 121.61716 | 34961 ft | 429 kts | 203° |
| 2026-05-05 06:45 | 23.02555 | 121.59881 | 34971 ft | 429 kts | 203° |
| 2026-05-05 06:45 | 22.96784 | 121.58032 | 34963 ft | 430 kts | 203° |
| 2026-05-05 06:46 | 22.91038 | 121.56195 | 34964 ft | 430 kts | 203° |
| 2026-05-05 06:46 | 22.85320 | 121.54369 | 34962 ft | 430 kts | 203° |
| 2026-05-05 06:47 | 22.79573 | 121.52534 | 34958 ft | 432 kts | 203° |
| 2026-05-05 06:47 | 22.73776 | 121.50686 | 34957 ft | 431 kts | 203° |
| 2026-05-05 06:48 | 22.68036 | 121.48857 | 34952 ft | 431 kts | 203° |
| 2026-05-05 06:48 | 22.62477 | 121.46525 | 34961 ft | 427 kts | 208° |
| 2026-05-05 06:49 | 22.56994 | 121.44099 | 34959 ft | 426 kts | 208° |
| 2026-05-05 06:49 | 22.51488 | 121.41675 | 34967 ft | 426 kts | 208° |
| 2026-05-05 06:50 | 22.45957 | 121.39244 | 34954 ft | 427 kts | 208° |
| 2026-05-05 06:50 | 22.40476 | 121.36838 | 34945 ft | 428 kts | 208° |
| 2026-05-05 06:51 | 22.34947 | 121.34413 | 34957 ft | 428 kts | 207° |
| 2026-05-05 06:51 | 22.29400 | 121.31983 | 34958 ft | 428 kts | 208° |
| 2026-05-05 06:52 | 22.23871 | 121.29562 | 34966 ft | 428 kts | 207° |
| 2026-05-05 06:52 | 22.18352 | 121.27148 | 34957 ft | 427 kts | 207° |
| 2026-05-05 06:53 | 22.12818 | 121.24729 | 34961 ft | 429 kts | 207° |
| 2026-05-05 06:53 | 22.07287 | 121.22313 | 34950 ft | 430 kts | 207° |
| 2026-05-05 06:54 | 22.01717 | 121.19884 | 34950 ft | 430 kts | 207° |
| 2026-05-05 06:54 | 21.96164 | 121.17462 | 34946 ft | 429 kts | 207° |
| 2026-05-05 06:55 | 21.90639 | 121.15054 | 34946 ft | 428 kts | 207° |
| 2026-05-05 06:55 | 21.85093 | 121.12640 | 34940 ft | 430 kts | 207° |
| 2026-05-05 06:56 | 21.79575 | 121.10239 | 34939 ft | 430 kts | 207° |
| 2026-05-05 06:56 | 21.74002 | 121.07817 | 34934 ft | 430 kts | 207° |
| 2026-05-05 06:57 | 21.68451 | 121.05405 | 34931 ft | 430 kts | 207° |
| 2026-05-05 06:57 | 21.62879 | 121.02988 | 34937 ft | 432 kts | 207° |
| 2026-05-05 06:58 | 21.57296 | 121.00568 | 34935 ft | 432 kts | 207° |
| 2026-05-05 06:58 | 21.51685 | 120.98136 | 34928 ft | 432 kts | 207° |
| 2026-05-05 06:59 | 21.46138 | 120.95736 | 34926 ft | 432 kts | 207° |
| 2026-05-05 06:59 | 21.40550 | 120.93319 | 34920 ft | 433 kts | 207° |
| 2026-05-05 07:00 | 21.34938 | 120.90894 | 34914 ft | 434 kts | 207° |
| 2026-05-05 07:00 | 21.29353 | 120.88483 | 34910 ft | 433 kts | 207° |
| 2026-05-05 07:01 | 21.23758 | 120.86069 | 34908 ft | 433 kts | 207° |
| 2026-05-05 07:01 | 21.18153 | 120.83652 | 34905 ft | 435 kts | 206° |
| 2026-05-05 07:02 | 21.12494 | 120.81214 | 34906 ft | 436 kts | 206° |
| 2026-05-05 07:02 | 21.06901 | 120.78808 | 34903 ft | 435 kts | 207° |
| 2026-05-05 07:03 | 21.01243 | 120.76377 | 34901 ft | 436 kts | 206° |
| 2026-05-05 07:03 | 20.98288 | 120.75520 | 34880 ft | 445 kts | 192° |
| 2026-05-05 07:03 | 20.95197 | 120.75350 | 34934 ft | 449 kts | 187° |
| 2026-05-05 07:04 | 20.88953 | 120.74912 | 34899 ft | 447 kts | 189° |
| 2026-05-05 07:04 | 20.82742 | 120.74407 | 34901 ft | 447 kts | 189° |
| 2026-05-05 07:05 | 20.76515 | 120.73895 | 34896 ft | 447 kts | 189° |
| 2026-05-05 07:05 | 20.70296 | 120.73382 | 34895 ft | 448 kts | 189° |
| 2026-05-05 07:06 | 20.64086 | 120.72871 | 34896 ft | 448 kts | 189° |
| 2026-05-05 07:06 | 20.57871 | 120.72359 | 34902 ft | 447 kts | 189° |
| 2026-05-05 07:07 | 20.51666 | 120.71848 | 34900 ft | 448 kts | 189° |
| 2026-05-05 07:07 | 20.45446 | 120.71337 | 34895 ft | 448 kts | 189° |
| 2026-05-05 07:08 | 20.39231 | 120.70828 | 34895 ft | 448 kts | 189° |
| 2026-05-05 07:08 | 20.33020 | 120.70317 | 34897 ft | 447 kts | 189° |
| 2026-05-05 07:09 | 20.26797 | 120.69807 | 34890 ft | 447 kts | 189° |
| 2026-05-05 07:09 | 20.20582 | 120.69299 | 34889 ft | 448 kts | 189° |
| 2026-05-05 07:10 | 20.14364 | 120.68790 | 34883 ft | 448 kts | 189° |
| 2026-05-05 07:10 | 20.08153 | 120.68282 | 34884 ft | 447 kts | 189° |
| 2026-05-05 07:11 | 20.01941 | 120.67774 | 34882 ft | 447 kts | 189° |
| 2026-05-05 07:11 | 19.95731 | 120.67267 | 34879 ft | 448 kts | 189° |
| 2026-05-05 07:12 | 19.89487 | 120.66757 | 34878 ft | 448 kts | 189° |
| 2026-05-05 07:12 | 19.83268 | 120.66251 | 34877 ft | 448 kts | 189° |
| 2026-05-05 07:13 | 19.77020 | 120.65742 | 34875 ft | 448 kts | 189° |
| 2026-05-05 07:13 | 19.70791 | 120.65234 | 34872 ft | 448 kts | 189° |
| 2026-05-05 07:14 | 19.64568 | 120.64728 | 34875 ft | 448 kts | 189° |
| 2026-05-05 07:14 | 19.58353 | 120.64223 | 34869 ft | 448 kts | 189° |
| 2026-05-05 07:15 | 19.52142 | 120.63719 | 34867 ft | 448 kts | 189° |
| 2026-05-05 07:15 | 19.45887 | 120.63211 | 34864 ft | 448 kts | 189° |
| 2026-05-05 07:16 | 19.39679 | 120.62708 | 34858 ft | 449 kts | 189° |
| 2026-05-05 07:16 | 19.33421 | 120.62201 | 34856 ft | 449 kts | 189° |
| 2026-05-05 07:17 | 19.27159 | 120.61694 | 34858 ft | 449 kts | 189° |
| 2026-05-05 07:17 | 19.20945 | 120.61191 | 34854 ft | 449 kts | 189° |
| 2026-05-05 07:18 | 19.14692 | 120.60686 | 34849 ft | 448 kts | 189° |
| 2026-05-05 07:18 | 19.08467 | 120.60182 | 34851 ft | 449 kts | 189° |
| 2026-05-05 07:19 | 19.02210 | 120.59678 | 34851 ft | 449 kts | 189° |
| 2026-05-05 07:19 | 18.95967 | 120.59174 | 34855 ft | 450 kts | 189° |
| 2026-05-05 07:20 | 18.89689 | 120.58668 | 34857 ft | 450 kts | 188° |
| 2026-05-05 07:20 | 18.83410 | 120.58163 | 34858 ft | 450 kts | 188° |
| 2026-05-05 07:21 | 18.77154 | 120.57659 | 34858 ft | 450 kts | 188° |
| 2026-05-05 07:21 | 18.70890 | 120.57156 | 34858 ft | 449 kts | 188° |
| 2026-05-05 07:22 | 18.64639 | 120.56654 | 34865 ft | 449 kts | 188° |
| 2026-05-05 07:22 | 18.58414 | 120.56154 | 34868 ft | 450 kts | 188° |
| 2026-05-05 07:23 | 18.52126 | 120.55649 | 34870 ft | 450 kts | 188° |
| 2026-05-05 07:23 | 18.45858 | 120.55146 | 34870 ft | 450 kts | 188° |
| 2026-05-05 07:24 | 18.39630 | 120.54647 | 34870 ft | 450 kts | 188° |
| 2026-05-05 07:24 | 18.33315 | 120.54141 | 34869 ft | 450 kts | 188° |
| 2026-05-05 07:25 | 18.27069 | 120.53642 | 34868 ft | 450 kts | 188° |
| 2026-05-05 07:25 | 18.20801 | 120.53140 | 34863 ft | 450 kts | 188° |
| 2026-05-05 07:26 | 18.14534 | 120.53404 | 34872 ft | 457 kts | 171° |
| 2026-05-05 07:26 | 18.08247 | 120.54687 | 34855 ft | 458 kts | 173° |
| 2026-05-05 07:27 | 18.02015 | 120.55858 | 34861 ft | 456 kts | 173° |
| 2026-05-05 07:27 | 17.95742 | 120.57020 | 34861 ft | 457 kts | 174° |
| 2026-05-05 07:28 | 17.89467 | 120.58180 | 34867 ft | 456 kts | 173° |
| 2026-05-05 07:28 | 17.83201 | 120.59338 | 34883 ft | 457 kts | 174° |
| 2026-05-05 07:29 | 17.76907 | 120.60500 | 34878 ft | 457 kts | 173° |
| 2026-05-05 07:29 | 17.70655 | 120.61653 | 34889 ft | 457 kts | 173° |
| 2026-05-05 07:30 | 17.64345 | 120.62818 | 34896 ft | 457 kts | 173° |
| 2026-05-05 07:30 | 17.54906 | 120.64560 | 34906 ft | 457 kts | 173° |
| 2026-05-05 07:31 | 17.48648 | 120.65714 | 34911 ft | 457 kts | 173° |
| 2026-05-05 07:31 | 17.42335 | 120.66878 | 34926 ft | 457 kts | 173° |
| 2026-05-05 07:32 | 17.36064 | 120.68032 | 34945 ft | 457 kts | 173° |
| 2026-05-05 07:32 | 17.29763 | 120.69192 | 34966 ft | 457 kts | 173° |
| 2026-05-05 07:33 | 17.23482 | 120.70350 | 34993 ft | 456 kts | 173° |
| 2026-05-05 07:33 | 17.17218 | 120.71506 | 34973 ft | 457 kts | 173° |
| 2026-05-05 07:34 | 17.10885 | 120.72675 | 35011 ft | 468 kts | 173° |
| 2026-05-05 07:34 | 17.04342 | 120.73882 | 35008 ft | 480 kts | 173° |
| 2026-05-05 07:35 | 16.97742 | 120.75098 | 35022 ft | 487 kts | 173° |
| 2026-05-05 07:35 | 16.91025 | 120.76335 | 35102 ft | 491 kts | 173° |
| 2026-05-05 07:36 | 16.84190 | 120.77593 | 35136 ft | 494 kts | 173° |
| 2026-05-05 07:36 | 16.77381 | 120.78845 | 35165 ft | 496 kts | 173° |
| 2026-05-05 07:37 | 16.70547 | 120.80101 | 35162 ft | 498 kts | 173° |
| 2026-05-05 07:37 | 16.63717 | 120.81355 | 35164 ft | 497 kts | 173° |
| 2026-05-05 07:38 | 16.58714 | 120.82273 | 35111 ft | 499 kts | 173° |
| 2026-05-05 07:38 | 16.53249 | 120.83276 | 35081 ft | 499 kts | 173° |
| 2026-05-05 07:39 | 16.46392 | 120.84532 | 35052 ft | 500 kts | 173° |
| 2026-05-05 07:39 | 16.39520 | 120.85790 | 35038 ft | 500 kts | 172° |
| 2026-05-05 07:40 | 16.32753 | 120.87029 | 35041 ft | 500 kts | 173° |
| 2026-05-05 07:40 | 16.25897 | 120.88283 | 35017 ft | 500 kts | 173° |
| 2026-05-05 07:41 | 16.19016 | 120.89541 | 34978 ft | 499 kts | 173° |
| 2026-05-05 07:41 | 16.12160 | 120.90793 | 34955 ft | 498 kts | 172° |
| 2026-05-05 07:42 | 16.05321 | 120.92041 | 34922 ft | 499 kts | 173° |
| 2026-05-05 07:42 | 15.98450 | 120.93294 | 34908 ft | 499 kts | 172° |
| 2026-05-05 07:43 | 15.91572 | 120.94547 | 34888 ft | 499 kts | 172° |
| 2026-05-05 07:43 | 15.84719 | 120.95796 | 34881 ft | 499 kts | 172° |
| 2026-05-05 07:44 | 15.77869 | 120.97043 | 34868 ft | 499 kts | 172° |
| 2026-05-05 07:44 | 15.70990 | 120.98293 | 34852 ft | 498 kts | 172° |
| 2026-05-05 07:45 | 15.64171 | 120.99533 | 34852 ft | 498 kts | 172° |
| 2026-05-05 07:45 | 15.57303 | 121.00781 | 34850 ft | 498 kts | 172° |
| 2026-05-05 07:46 | 15.50434 | 121.02027 | 34841 ft | 498 kts | 172° |
| 2026-05-05 07:46 | 15.43929 | 121.04425 | 34862 ft | 502 kts | 154° |
| 2026-05-05 07:47 | 15.37628 | 121.07628 | 34844 ft | 503 kts | 156° |
| 2026-05-05 07:47 | 15.31325 | 121.10734 | 34857 ft | 502 kts | 156° |
| 2026-05-05 07:48 | 15.24969 | 121.13857 | 34880 ft | 502 kts | 156° |
| 2026-05-05 07:48 | 15.18682 | 121.16943 | 34890 ft | 502 kts | 156° |
| 2026-05-05 07:49 | 15.12319 | 121.20064 | 34885 ft | 502 kts | 156° |
| 2026-05-05 07:49 | 15.06027 | 121.23148 | 34883 ft | 502 kts | 156° |
| 2026-05-05 07:50 | 14.99689 | 121.26253 | 34893 ft | 501 kts | 156° |
| 2026-05-05 07:50 | 14.93398 | 121.29333 | 34891 ft | 502 kts | 156° |
| 2026-05-05 07:51 | 14.87055 | 121.32437 | 34896 ft | 501 kts | 156° |
| 2026-05-05 07:51 | 14.80763 | 121.35513 | 34890 ft | 501 kts | 156° |
| 2026-05-05 07:52 | 14.74462 | 121.38593 | 34886 ft | 501 kts | 156° |
| 2026-05-05 07:52 | 14.68155 | 121.41672 | 34885 ft | 500 kts | 156° |
| 2026-05-05 07:53 | 14.61850 | 121.44749 | 34882 ft | 500 kts | 156° |
| 2026-05-05 07:53 | 14.55550 | 121.47821 | 34882 ft | 499 kts | 156° |
| 2026-05-05 07:54 | 14.49259 | 121.50887 | 34886 ft | 500 kts | 156° |
| 2026-05-05 07:54 | 14.42964 | 121.53953 | 34880 ft | 500 kts | 156° |
| 2026-05-05 07:55 | 14.36681 | 121.57011 | 34874 ft | 499 kts | 156° |
| 2026-05-05 07:55 | 14.30391 | 121.60071 | 34863 ft | 498 kts | 155° |
| 2026-05-05 07:56 | 14.24114 | 121.63123 | 34859 ft | 498 kts | 155° |
| 2026-05-05 07:56 | 14.17851 | 121.66166 | 34861 ft | 498 kts | 156° |
| 2026-05-05 07:57 | 14.11571 | 121.69215 | 34867 ft | 497 kts | 156° |
| 2026-05-05 07:57 | 14.05319 | 121.72249 | 34874 ft | 496 kts | 156° |
| 2026-05-05 07:58 | 13.99063 | 121.75283 | 34879 ft | 497 kts | 156° |
| 2026-05-05 07:58 | 13.92795 | 121.78321 | 34867 ft | 497 kts | 156° |
| 2026-05-05 07:59 | 13.86547 | 121.81381 | 34851 ft | 498 kts | 153° |
| 2026-05-05 07:59 | 13.83644 | 121.83425 | 34851 ft | 499 kts | 142° |
| 2026-05-05 07:59 | 13.80904 | 121.85590 | 34862 ft | 499 kts | 144° |
| 2026-05-05 08:00 | 13.75319 | 121.89831 | 34846 ft | 499 kts | 144° |
| 2026-05-05 08:00 | 13.69710 | 121.94064 | 34843 ft | 498 kts | 144° |
| 2026-05-05 08:01 | 13.64104 | 121.98290 | 34844 ft | 498 kts | 144° |
| 2026-05-05 08:01 | 13.58521 | 122.02496 | 34845 ft | 498 kts | 144° |
| 2026-05-05 08:02 | 13.52946 | 122.06694 | 34847 ft | 498 kts | 144° |
| 2026-05-05 08:02 | 13.47336 | 122.10915 | 34851 ft | 498 kts | 144° |
| 2026-05-05 08:03 | 13.41770 | 122.15101 | 34857 ft | 498 kts | 144° |
| 2026-05-05 08:03 | 13.36171 | 122.19309 | 34856 ft | 499 kts | 144° |
| 2026-05-05 08:04 | 13.30568 | 122.23518 | 34849 ft | 499 kts | 144° |
| 2026-05-05 08:04 | 13.24974 | 122.27718 | 34815 ft | 497 kts | 144° |
| 2026-05-05 08:05 | 13.19358 | 122.31931 | 34835 ft | 498 kts | 144° |
| 2026-05-05 08:05 | 13.13777 | 122.36115 | 34836 ft | 499 kts | 144° |
| 2026-05-05 08:06 | 13.08127 | 122.40350 | 34834 ft | 498 kts | 145° |
| 2026-05-05 08:06 | 13.02521 | 122.44549 | 34833 ft | 497 kts | 145° |
| 2026-05-05 08:07 | 12.96919 | 122.48742 | 34831 ft | 497 kts | 145° |
| 2026-05-05 08:07 | 12.91351 | 122.52907 | 34829 ft | 498 kts | 145° |
| 2026-05-05 08:08 | 12.85709 | 122.57126 | 34830 ft | 498 kts | 145° |
| 2026-05-05 08:08 | 12.80082 | 122.61331 | 34826 ft | 497 kts | 145° |
| 2026-05-05 08:09 | 12.74508 | 122.65494 | 34824 ft | 497 kts | 145° |
| 2026-05-05 08:09 | 12.69281 | 122.69395 | 34820 ft | 487 kts | 145° |
| 2026-05-05 08:10 | 12.66595 | 122.71401 | 34810 ft | 467 kts | 145° |
| 2026-05-05 08:10 | 12.64010 | 122.73329 | 34811 ft | 450 kts | 145° |
| 2026-05-05 08:10 | 12.58936 | 122.77111 | 34826 ft | 452 kts | 145° |
| 2026-05-05 08:11 | 12.53811 | 122.80930 | 34822 ft | 457 kts | 145° |
| 2026-05-05 08:11 | 12.48675 | 122.84757 | 34820 ft | 455 kts | 145° |
| 2026-05-05 08:12 | 12.43562 | 122.88563 | 34820 ft | 454 kts | 145° |
| 2026-05-05 08:12 | 12.38454 | 122.92364 | 34820 ft | 455 kts | 145° |
| 2026-05-05 08:13 | 12.33317 | 122.96185 | 34820 ft | 455 kts | 145° |
| 2026-05-05 08:13 | 12.28216 | 122.99978 | 34821 ft | 454 kts | 145° |
| 2026-05-05 08:14 | 12.23091 | 123.03786 | 34822 ft | 454 kts | 145° |
| 2026-05-05 08:14 | 12.17974 | 123.07587 | 34823 ft | 455 kts | 144° |
| 2026-05-05 08:15 | 12.12880 | 123.11369 | 34825 ft | 455 kts | 144° |
| 2026-05-05 08:15 | 12.07742 | 123.15182 | 34825 ft | 454 kts | 145° |
| 2026-05-05 08:16 | 12.02645 | 123.18961 | 34830 ft | 454 kts | 145° |
| 2026-05-05 08:16 | 11.98847 | 123.21777 | 34841 ft | 454 kts | 144° |
| 2026-05-05 08:17 | 11.94950 | 123.24664 | 34839 ft | 454 kts | 145° |
| 2026-05-05 08:17 | 11.89850 | 123.28442 | 34839 ft | 454 kts | 144° |
| 2026-05-05 08:18 | 11.84705 | 123.32252 | 34840 ft | 454 kts | 144° |
| 2026-05-05 08:18 | 11.79603 | 123.36028 | 34832 ft | 453 kts | 145° |
| 2026-05-05 08:19 | 11.74465 | 123.39828 | 34729 ft | 455 kts | 144° |
| 2026-05-05 08:19 | 11.71905 | 123.41721 | 34005 ft | 463 kts | 144° |
| 2026-05-05 08:19 | 11.69301 | 123.43645 | 33261 ft | 460 kts | 144° |
| 2026-05-05 08:20 | 11.66703 | 123.45567 | 32555 ft | 456 kts | 144° |
| 2026-05-05 08:20 | 11.64124 | 123.47472 | 31910 ft | 454 kts | 144° |
| 2026-05-05 08:20 | 11.61590 | 123.49343 | 31284 ft | 457 kts | 144° |
| 2026-05-05 08:20 | 11.58979 | 123.51271 | 30622 ft | 462 kts | 144° |
| 2026-05-05 08:21 | 11.56373 | 123.53196 | 29722 ft | 468 kts | 144° |
| 2026-05-05 08:21 | 11.53747 | 123.55135 | 28835 ft | 468 kts | 144° |
| 2026-05-05 08:21 | 11.51116 | 123.57076 | 27973 ft | 466 kts | 144° |
| 2026-05-05 08:21 | 11.48510 | 123.58999 | 27122 ft | 464 kts | 143° |
| 2026-05-05 08:22 | 11.45894 | 123.60929 | 26253 ft | 462 kts | 143° |
| 2026-05-05 08:22 | 11.43288 | 123.62851 | 25062 ft | 467 kts | 143° |
| 2026-05-05 08:22 | 11.40655 | 123.64791 | 23729 ft | 463 kts | 143° |
| 2026-05-05 08:22 | 11.38103 | 123.66672 | 22777 ft | 455 kts | 143° |
| 2026-05-05 08:23 | 11.35583 | 123.68530 | 22633 ft | 436 kts | 142° |
| 2026-05-05 08:23 | 11.33109 | 123.70354 | 21874 ft | 432 kts | 142° |
| 2026-05-05 08:23 | 11.30740 | 123.72098 | 21278 ft | 411 kts | 142° |
| 2026-05-05 08:23 | 11.28464 | 123.73776 | 20804 ft | 404 kts | 142° |
| 2026-05-05 08:24 | 11.26189 | 123.75452 | 20263 ft | 400 kts | 142° |
| 2026-05-05 08:24 | 11.23969 | 123.77086 | 19760 ft | 395 kts | 143° |
| 2026-05-05 08:24 | 11.21732 | 123.78735 | 19252 ft | 390 kts | 143° |
| 2026-05-05 08:24 | 11.19558 | 123.80332 | 18843 ft | 382 kts | 143° |
| 2026-05-05 08:25 | 11.17412 | 123.81912 | 18293 ft | 379 kts | 142° |
| 2026-05-05 08:25 | 11.15177 | 123.83302 | 17836 ft | 375 kts | 156° |
| 2026-05-05 08:25 | 11.12658 | 123.83905 | 17325 ft | 375 kts | 175° |
| 2026-05-05 08:25 | 11.10089 | 123.83633 | 16830 ft | 374 kts | 194° |
| 2026-05-05 08:26 | 11.07596 | 123.82842 | 16362 ft | 370 kts | 195° |
| 2026-05-05 08:26 | 11.05132 | 123.82121 | 15881 ft | 367 kts | 194° |
| 2026-05-05 08:26 | 11.02693 | 123.81424 | 15406 ft | 364 kts | 194° |
| 2026-05-05 08:26 | 11.00267 | 123.80740 | 14957 ft | 361 kts | 194° |
| 2026-05-05 08:27 | 10.97854 | 123.80064 | 14455 ft | 359 kts | 194° |
| 2026-05-05 08:27 | 10.95430 | 123.79385 | 13982 ft | 356 kts | 194° |
| 2026-05-05 08:27 | 10.93033 | 123.78715 | 13477 ft | 355 kts | 194° |
| 2026-05-05 08:27 | 10.90669 | 123.78056 | 12994 ft | 353 kts | 194° |
| 2026-05-05 08:28 | 10.88285 | 123.77390 | 12506 ft | 352 kts | 194° |
| 2026-05-05 08:28 | 10.85918 | 123.76729 | 12031 ft | 349 kts | 194° |
| 2026-05-05 08:28 | 10.83581 | 123.76077 | 11576 ft | 347 kts | 194° |
| 2026-05-05 08:28 | 10.81269 | 123.75432 | 11142 ft | 344 kts | 194° |
| 2026-05-05 08:29 | 10.78961 | 123.74789 | 10739 ft | 339 kts | 194° |
| 2026-05-05 08:29 | 10.76724 | 123.74165 | 10671 ft | 329 kts | 194° |
| 2026-05-05 08:29 | 10.74482 | 123.73540 | 10524 ft | 331 kts | 194° |
| 2026-05-05 08:30 | 10.70052 | 123.72304 | 10340 ft | 329 kts | 193° |
| 2026-05-05 08:30 | 10.67866 | 123.71693 | 10228 ft | 322 kts | 193° |
| 2026-05-05 08:30 | 10.65732 | 123.71098 | 10112 ft | 311 kts | 193° |
| 2026-05-05 08:30 | 10.63658 | 123.70521 | 10005 ft | 300 kts | 193° |
| 2026-05-05 08:31 | 10.61682 | 123.69971 | 9826 ft | 293 kts | 193° |
| 2026-05-05 08:31 | 10.59705 | 123.69420 | 9569 ft | 289 kts | 193° |
| 2026-05-05 08:31 | 10.57786 | 123.68886 | 9295 ft | 286 kts | 193° |
| 2026-05-05 08:31 | 10.55854 | 123.68349 | 9018 ft | 284 kts | 193° |
| 2026-05-05 08:32 | 10.53976 | 123.67825 | 8759 ft | 281 kts | 193° |
| 2026-05-05 08:32 | 10.52075 | 123.67296 | 8493 ft | 279 kts | 193° |
| 2026-05-05 08:32 | 10.50207 | 123.66775 | 8244 ft | 276 kts | 193° |
| 2026-05-05 08:32 | 10.48348 | 123.66258 | 7989 ft | 274 kts | 193° |
| 2026-05-05 08:33 | 10.46517 | 123.65749 | 7737 ft | 272 kts | 193° |
| 2026-05-05 08:33 | 10.44684 | 123.65239 | 7489 ft | 270 kts | 193° |
| 2026-05-05 08:33 | 10.42882 | 123.64738 | 7324 ft | 264 kts | 193° |
| 2026-05-05 08:33 | 10.41123 | 123.64248 | 7247 ft | 260 kts | 193° |
| 2026-05-05 08:34 | 10.39390 | 123.63766 | 7155 ft | 255 kts | 193° |
| 2026-05-05 08:34 | 10.37678 | 123.63290 | 7066 ft | 248 kts | 193° |
| 2026-05-05 08:34 | 10.36007 | 123.62972 | 6980 ft | 243 kts | 175° |
| 2026-05-05 08:34 | 10.34417 | 123.63454 | 6939 ft | 236 kts | 144° |
| 2026-05-05 08:35 | 10.33320 | 123.64658 | 6923 ft | 232 kts | 115° |
| 2026-05-05 08:35 | 10.32610 | 123.66103 | 6836 ft | 232 kts | 116° |
| 2026-05-05 08:35 | 10.31840 | 123.67574 | 6599 ft | 233 kts | 116° |
| 2026-05-05 08:35 | 10.31088 | 123.69019 | 6360 ft | 233 kts | 116° |
| 2026-05-05 08:36 | 10.30333 | 123.70467 | 6088 ft | 233 kts | 116° |
| 2026-05-05 08:36 | 10.29566 | 123.71938 | 5806 ft | 235 kts | 116° |
| 2026-05-05 08:36 | 10.28801 | 123.73405 | 5516 ft | 237 kts | 116° |
| 2026-05-05 08:36 | 10.28020 | 123.74902 | 5212 ft | 239 kts | 116° |
| 2026-05-05 08:37 | 10.27242 | 123.76393 | 4893 ft | 242 kts | 116° |
| 2026-05-05 08:37 | 10.26445 | 123.77921 | 4574 ft | 244 kts | 116° |
| 2026-05-05 08:37 | 10.25647 | 123.79450 | 4246 ft | 246 kts | 116° |
| 2026-05-05 08:37 | 10.24848 | 123.80981 | 3918 ft | 248 kts | 116° |
| 2026-05-05 08:38 | 10.24031 | 123.82545 | 3586 ft | 250 kts | 116° |
| 2026-05-05 08:38 | 10.23212 | 123.84114 | 3249 ft | 250 kts | 116° |
| 2026-05-05 08:38 | 10.22410 | 123.85650 | 2909 ft | 242 kts | 116° |
| 2026-05-05 08:38 | 10.21801 | 123.87187 | 2572 ft | 232 kts | 96° |
| 2026-05-05 08:39 | 10.21993 | 123.88714 | 2270 ft | 213 kts | 67° |
| 2026-05-05 08:39 | 10.22848 | 123.89854 | 1949 ft | 193 kts | 47° |
| 2026-05-05 08:39 | 10.23720 | 123.90794 | 1759 ft | 179 kts | 49° |
| 2026-05-05 08:39 | 10.24567 | 123.91692 | 1471 ft | 172 kts | 48° |
| 2026-05-05 08:40 | 10.25387 | 123.92557 | 1378 ft | 159 kts | 47° |
| 2026-05-05 08:40 | 10.26102 | 123.93309 | 1119 ft | 143 kts | 48° |
| 2026-05-05 08:40 | 10.26774 | 123.94010 | 770 ft | 136 kts | 45° |
| 2026-05-05 08:40 | 10.27444 | 123.94663 | 561 ft | 132 kts | 46° |
| 2026-05-05 08:41 | 10.28102 | 123.95298 | 473 ft | 132 kts | 44° |
| 2026-05-05 08:41 | 10.28776 | 123.95943 | 316 ft | 133 kts | 44° |
| 2026-05-05 08:41 | 10.29432 | 123.96615 | 120 ft | 132 kts | 45° |
| 2026-05-05 08:41 | 10.30080 | 123.97267 | 39 ft | 126 kts | 44° |
| 2026-05-05 08:42 | 10.30618 | 123.97818 | 37 ft | 82 kts | 43° |
| 2026-05-05 08:42 | 10.30897 | 123.98079 | 39 ft | 29 kts | 44° |
| 2026-05-05 08:42 | 10.31038 | 123.98216 | 39 ft | 16 kts | 42° |
| 2026-05-05 08:42 | 10.31120 | 123.98281 | 38 ft | 12 kts | 29° |
| 2026-05-05 08:43 | 10.31187 | 123.98313 | 37 ft | 8 kts | 24° |
| 2026-05-05 08:43 | 10.31231 | 123.98332 | 37 ft | 5 kts | 17° |
| 2026-05-05 08:43 | 10.31298 | 123.98350 | 37 ft | 3 kts | 15° |
| 2026-05-05 08:43 | 10.31312 | 123.98354 | 37 ft | 0 kts | 10° |
| 2026-05-05 08:44 | 10.31350 | 123.98350 | 38 ft | 8 kts | 340° |
| 2026-05-05 08:44 | 10.31392 | 123.98322 | 39 ft | 7 kts | 313° |
| 2026-05-05 08:44 | 10.31426 | 123.98286 | 41 ft | 6 kts | 315° |
| 2026-05-05 08:44 | 10.31452 | 123.98260 | 43 ft | 6 kts | 312° |
| 2026-05-05 08:45 | 10.31511 | 123.98197 | 44 ft | 16 kts | 316° |
| 2026-05-05 08:45 | 10.31561 | 123.98122 | 47 ft | 8 kts | 260° |
| 2026-05-05 08:45 | 10.31541 | 123.98085 | 47 ft | 4 kts | 230° |
| 2026-05-05 08:45 | 10.31507 | 123.98046 | 49 ft | 9 kts | 228° |
| 2026-05-05 08:46 | 10.31453 | 123.97990 | 51 ft | 13 kts | 225° |
| 2026-05-05 08:46 | 10.31380 | 123.97919 | 52 ft | 10 kts | 221° |
| 2026-05-05 08:46 | 10.31367 | 123.97908 | 52 ft | 0 kts | 214° |
| 2026-05-05 08:46 | 10.31361 | 123.97905 | 52 ft | 3 kts | 205° |
| 2026-05-05 08:47 | 10.31324 | 123.97883 | 52 ft | 6 kts | 229° |
| 2026-05-05 08:47 | 10.31310 | 123.97856 | 52 ft | 2 kts | 252° |
| 2026-05-05 08:47 | 10.31307 | 123.97839 | 52 ft | 2 kts | 260° |
| 2026-05-05 08:47 | 10.31301 | 123.97807 | 52 ft | 2 kts | 252° |
| 2026-05-05 08:48 | 10.31293 | 123.97792 | 51 ft | 2 kts | 239° |
| 2026-05-05 08:48 | 10.31288 | 123.97779 | 51 ft | 0 kts | 254° |
| 2026-05-05 08:48 | 10.31286 | 123.97763 | 51 ft | 2 kts | 268° |
| 2026-05-05 08:48 | 10.31286 | 123.97759 | 51 ft | 1 kts | 267° |
| 2026-05-05 08:49 | 10.31285 | 123.97757 | 51 ft | 0 kts | 268° |